Time;durP1;ratioP1;P1;durP2;ratioP2;P2;SDS_P1;SDS_P2;PMS_P1;PMS_P2;Temp;Humidity;BMP_temperature;BMP_pressure;BME280_temperature;BME280_humidity;BME280_pressure;Samples;Min_cycle;Max_cycle;Signal;HPM_P1;HPM_P2
2024/03/20 00:01:14;;;;;;;57.30;34.22;;;17.30;75.10;;;;;;4982692;28;20057;-84
2024/03/20 00:03:40;;;;;;;58.97;33.35;;;17.20;75.30;;;;;;4982766;28;20388;-84
2024/03/20 00:06:06;;;;;;;60.20;33.78;;;17.20;75.30;;;;;;4987532;28;20042;-84
2024/03/20 00:08:31;;;;;;;59.42;34.05;;;17.20;75.10;;;;;;4981585;28;20030;-84
2024/03/20 00:10:57;;;;;;;52.70;30.33;;;17.20;75.10;;;;;;4967157;28;20109;-85
2024/03/20 00:13:22;;;;;;;55.55;31.10;;;17.30;75.10;;;;;;4980545;28;20038;-84
2024/03/20 00:15:48;;;;;;;58.67;33.42;;;17.20;75.10;;;;;;4962992;28;20113;-84
2024/03/20 00:18:14;;;;;;;55.08;32.90;;;17.20;74.90;;;;;;4986905;28;20042;-85
2024/03/20 00:20:40;;;;;;;53.78;31.27;;;17.20;75.10;;;;;;4984381;28;20042;-84
2024/03/20 00:23:07;;;;;;;54.45;31.42;;;17.20;75.90;;;;;;4984868;28;20046;-83
2024/03/20 00:25:33;;;;;;;52.88;31.95;;;17.30;75.30;;;;;;4998224;28;20135;-83
2024/03/20 00:27:58;;;;;;;49.67;30.80;;;17.30;75.40;;;;;;4984011;28;20089;-84
2024/03/20 00:30:24;;;;;;;53.42;31.77;;;17.30;75.10;;;;;;4983646;28;20512;-83
2024/03/20 00:32:50;;;;;;;51.33;30.60;;;17.30;74.80;;;;;;4984400;28;20057;-83
2024/03/20 00:35:15;;;;;;;52.03;31.52;;;17.30;74.80;;;;;;4984202;28;20039;-83
2024/03/20 00:37:41;;;;;;;51.97;29.85;;;17.30;75.00;;;;;;4986162;28;20039;-82
2024/03/20 00:40:08;;;;;;;45.40;29.10;;;17.30;74.90;;;;;;4988065;28;20058;-82
2024/03/20 00:42:34;;;;;;;48.53;28.30;;;17.30;74.80;;;;;;5002349;28;20038;-82
2024/03/20 00:45:00;;;;;;;47.63;29.23;;;17.20;75.00;;;;;;4988234;28;20050;-82
2024/03/20 00:47:25;;;;;;;43.67;27.50;;;17.20;74.70;;;;;;4985357;28;20550;-82
2024/03/20 00:49:51;;;;;;;48.05;28.67;;;17.20;75.60;;;;;;4986210;28;20385;-84
2024/03/20 00:52:17;;;;;;;47.00;28.08;;;17.20;74.80;;;;;;4988847;28;20089;-83
2024/03/20 00:54:45;;;;;;;48.15;29.52;;;17.20;74.80;;;;;;4986286;28;20286;-83
2024/03/20 00:57:11;;;;;;;47.13;29.02;;;17.20;74.80;;;;;;5003739;28;20042;-83
2024/03/20 00:59:37;;;;;;;45.22;27.17;;;17.20;75.10;;;;;;4987670;28;20042;-83
2024/03/20 01:02:02;;;;;;;41.42;25.60;;;17.20;74.80;;;;;;4985963;28;20054;-82
2024/03/20 01:04:28;;;;;;;42.90;26.48;;;17.20;74.90;;;;;;4968250;28;20034;-76
2024/03/20 01:06:54;;;;;;;38.63;24.73;;;17.20;75.10;;;;;;4986618;28;20527;-77
2024/03/20 01:09:21;;;;;;;42.53;26.08;;;17.20;74.90;;;;;;4986965;28;20396;-76
2024/03/20 01:11:47;;;;;;;43.50;26.80;;;17.20;74.90;;;;;;4984404;28;20049;-76
2024/03/20 01:14:12;;;;;;;44.00;26.50;;;17.20;75.10;;;;;;4968060;28;20033;-76
2024/03/20 01:16:38;;;;;;;45.53;27.38;;;17.20;74.90;;;;;;4968580;28;20039;-76
2024/03/20 01:19:03;;;;;;;39.55;24.75;;;17.10;74.90;;;;;;4983667;28;20039;-77
2024/03/20 01:21:30;;;;;;;43.00;26.05;;;17.20;75.10;;;;;;4984492;28;20066;-76
2024/03/20 01:23:56;;;;;;;38.05;24.10;;;17.10;74.90;;;;;;4986176;28;20046;-76
2024/03/20 01:26:22;;;;;;;36.22;23.08;;;17.10;74.90;;;;;;4985901;28;20042;-77
2024/03/20 01:28:51;;;;;;;38.58;24.35;;;17.10;74.80;;;;;;4986780;28;20042;-77
2024/03/20 01:31:16;;;;;;;36.35;23.40;;;17.10;74.90;;;;;;4988004;28;20042;-77
2024/03/20 01:33:42;;;;;;;37.60;23.67;;;17.10;74.70;;;;;;4985184;28;20092;-76
2024/03/20 01:36:07;;;;;;;36.72;23.85;;;17.10;74.70;;;;;;4955882;28;20554;-76
2024/03/20 01:38:33;;;;;;;36.35;23.88;;;17.10;74.60;;;;;;4954260;28;20046;-78
2024/03/20 01:40:59;;;;;;;40.20;24.23;;;17.10;74.60;;;;;;4969393;28;20500;-76
2024/03/20 01:43:24;;;;;;;36.58;23.10;;;17.10;74.60;;;;;;4984284;28;20042;-77
2024/03/20 01:45:50;;;;;;;34.10;23.08;;;17.10;74.60;;;;;;4989506;28;20047;-76
2024/03/20 01:48:16;;;;;;;39.05;24.70;;;17.10;74.60;;;;;;4987556;28;20439;-77
2024/03/20 01:50:42;;;;;;;36.72;23.75;;;17.10;75.30;;;;;;4984610;28;20050;-77
2024/03/20 01:53:08;;;;;;;35.70;23.58;;;17.10;74.60;;;;;;4987794;28;20539;-77
2024/03/20 01:55:34;;;;;;;33.78;21.33;;;17.10;74.50;;;;;;4960104;28;20400;-77
2024/03/20 01:58:00;;;;;;;30.73;20.65;;;17.10;74.40;;;;;;4985020;28;20496;-77
2024/03/20 02:00:27;;;;;;;34.42;20.92;;;17.10;74.40;;;;;;4969769;28;20061;-77
2024/03/20 02:02:59;;;;;;;31.80;19.92;;;17.10;74.30;;;;;;4986100;28;20096;-76
2024/03/20 02:05:25;;;;;;;34.92;20.40;;;17.10;74.40;;;;;;4985162;28;20050;-76
2024/03/20 02:07:54;;;;;;;29.83;20.33;;;17.10;74.40;;;;;;4966569;28;20069;-76
2024/03/20 02:10:20;;;;;;;33.90;20.60;;;17.10;74.30;;;;;;4969182;28;20142;-76
2024/03/20 02:12:47;;;;;;;29.05;18.77;;;17.10;74.40;;;;;;4986239;28;20741;-76
2024/03/20 02:15:13;;;;;;;32.90;19.75;;;17.00;75.10;;;;;;4968065;28;20042;-76
2024/03/20 02:17:39;;;;;;;28.85;18.55;;;17.10;74.40;;;;;;4981387;28;20544;-76
2024/03/20 02:20:06;;;;;;;26.83;18.50;;;17.10;74.30;;;;;;4948458;28;20535;-76
2024/03/20 02:22:41;;;;;;;31.60;19.60;;;17.10;74.30;;;;;;4983645;28;20043;-76
2024/03/20 02:25:08;;;;;;;28.08;17.83;;;17.10;74.20;;;;;;4983412;28;20042;-76
2024/03/20 02:27:34;;;;;;;30.67;19.27;;;17.10;74.30;;;;;;4967915;28;20046;-76
2024/03/20 02:29:59;;;;;;;28.52;19.05;;;17.00;74.20;;;;;;4985517;28;20057;-76
2024/03/20 02:32:25;;;;;;;28.23;18.52;;;17.00;74.20;;;;;;5000815;28;20042;-76
2024/03/20 02:34:51;;;;;;;28.60;19.02;;;17.00;74.30;;;;;;4967628;28;20038;-77
2024/03/20 02:37:16;;;;;;;30.58;18.67;;;17.00;74.20;;;;;;5001291;28;20104;-77
2024/03/20 02:39:42;;;;;;;24.58;17.00;;;17.00;74.10;;;;;;4982185;28;20532;-77
2024/03/20 02:42:08;;;;;;;24.65;16.75;;;17.00;74.20;;;;;;4974655;28;20057;-77
2024/03/20 02:44:34;;;;;;;26.33;17.55;;;17.00;74.00;;;;;;4968234;28;20038;-77
2024/03/20 02:47:00;;;;;;;25.92;16.42;;;17.00;74.00;;;;;;4965914;28;20039;-77
2024/03/20 02:49:26;;;;;;;26.02;18.05;;;17.00;74.00;;;;;;4983167;28;20066;-76
2024/03/20 02:51:51;;;;;;;25.27;17.92;;;17.00;74.10;;;;;;4984310;28;20077;-77
2024/03/20 02:54:17;;;;;;;23.92;16.40;;;17.00;74.80;;;;;;4985672;28;20388;-76
2024/03/20 02:56:42;;;;;;;24.67;16.25;;;17.00;74.00;;;;;;4986303;28;20038;-76
2024/03/20 02:59:08;;;;;;;23.55;16.15;;;17.00;74.00;;;;;;4951850;28;20172;-76
2024/03/20 03:01:33;;;;;;;23.90;15.32;;;17.00;74.00;;;;;;4965664;28;20050;-76
2024/03/20 03:03:59;;;;;;;22.42;15.95;;;17.00;74.00;;;;;;5001593;28;20049;-76
2024/03/20 03:06:25;;;;;;;24.00;16.13;;;17.00;73.90;;;;;;4985497;28;20579;-76
2024/03/20 03:08:50;;;;;;;23.45;15.88;;;17.00;74.00;;;;;;4983206;28;21697;-76
2024/03/20 03:11:16;;;;;;;18.55;13.90;;;17.00;74.00;;;;;;4984074;28;20050;-77
2024/03/20 03:13:42;;;;;;;24.58;16.55;;;17.00;74.00;;;;;;4983111;28;20044;-77
2024/03/20 03:16:14;;;;;;;22.77;15.45;;;17.00;74.00;;;;;;4982217;28;20046;-77
2024/03/20 03:18:39;;;;;;;22.10;15.15;;;17.00;73.90;;;;;;4983876;28;20038;-77
2024/03/20 03:21:11;;;;;;;21.92;14.57;;;17.00;73.90;;;;;;4986644;28;20054;-77
2024/03/20 03:23:37;;;;;;;20.35;14.18;;;17.00;73.90;;;;;;4999989;28;20081;-76
2024/03/20 03:26:03;;;;;;;22.13;14.40;;;17.00;73.80;;;;;;4984077;28;20069;-77
2024/03/20 03:28:29;;;;;;;20.50;14.40;;;17.00;73.80;;;;;;4998670;28;20059;-76
2024/03/20 03:30:55;;;;;;;23.23;14.95;;;17.00;73.90;;;;;;4998063;28;20042;-76
2024/03/20 03:33:20;;;;;;;21.63;14.57;;;16.90;74.60;;;;;;4982693;28;20057;-76
2024/03/20 03:35:46;;;;;;;21.77;14.18;;;16.90;73.80;;;;;;4982525;28;20050;-77
2024/03/20 03:38:11;;;;;;;18.58;13.00;;;16.90;73.70;;;;;;4965613;28;20038;-77
2024/03/20 03:40:37;;;;;;;17.52;12.68;;;17.00;73.90;;;;;;4981621;28;20130;-77
2024/03/20 03:43:02;;;;;;;20.30;14.05;;;17.00;73.70;;;;;;4982600;28;20045;-77
2024/03/20 03:45:28;;;;;;;18.80;13.05;;;16.90;73.70;;;;;;5000474;28;20066;-77
2024/03/20 03:47:54;;;;;;;19.70;14.77;;;17.00;74.60;;;;;;4982583;28;20041;-76
2024/03/20 03:50:19;;;;;;;19.20;13.52;;;16.90;73.60;;;;;;4983295;28;20038;-76
2024/03/20 03:52:45;;;;;;;16.20;12.52;;;16.90;73.70;;;;;;4982515;28;20461;-77
2024/03/20 03:55:10;;;;;;;20.00;12.70;;;16.90;73.70;;;;;;4983718;28;20049;-76
2024/03/20 03:57:36;;;;;;;16.90;13.13;;;16.90;73.80;;;;;;4993168;28;20109;-76
2024/03/20 04:00:02;;;;;;;15.77;11.90;;;16.90;73.90;;;;;;4988099;28;20050;-77
2024/03/20 04:02:28;;;;;;;18.42;12.63;;;16.90;73.70;;;;;;4985272;28;20436;-76
2024/03/20 04:04:53;;;;;;;15.30;11.65;;;16.90;73.70;;;;;;4954645;28;20046;-77
2024/03/20 04:07:19;;;;;;;18.55;12.48;;;16.90;73.70;;;;;;5002756;28;20463;-77
2024/03/20 04:09:45;;;;;;;16.23;11.85;;;16.90;73.60;;;;;;4986766;28;20081;-77
2024/03/20 04:12:11;;;;;;;17.20;11.68;;;16.90;73.70;;;;;;4987220;28;20320;-77
2024/03/20 04:14:36;;;;;;;17.48;12.13;;;16.90;73.70;;;;;;4956811;28;20038;-77
2024/03/20 04:17:02;;;;;;;15.25;11.88;;;16.90;73.70;;;;;;4982306;28;20420;-76
2024/03/20 04:19:27;;;;;;;16.10;11.00;;;16.90;73.70;;;;;;4983708;28;20092;-77
2024/03/20 04:21:55;;;;;;;16.95;11.40;;;16.90;73.70;;;;;;4965887;28;20031;-77
2024/03/20 04:24:22;;;;;;;14.45;11.20;;;16.90;73.70;;;;;;4970215;28;20093;-77
2024/03/20 04:26:48;;;;;;;14.80;11.25;;;16.90;74.50;;;;;;4988199;28;20129;-77
2024/03/20 04:29:13;;;;;;;15.88;11.20;;;16.90;74.40;;;;;;4970790;28;20136;-77
2024/03/20 04:31:39;;;;;;;14.27;10.77;;;16.90;73.70;;;;;;4986342;28;20143;-77
2024/03/20 04:34:05;;;;;;;12.13;10.68;;;16.90;73.70;;;;;;4986195;28;20054;-76
2024/03/20 04:36:30;;;;;;;13.55;10.55;;;16.90;74.50;;;;;;4973513;28;20195;-76
2024/03/20 04:38:56;;;;;;;13.88;10.60;;;16.90;73.80;;;;;;4969057;28;20061;-76
2024/03/20 04:41:22;;;;;;;11.18;9.32;;;16.90;73.80;;;;;;4955313;28;20121;-76
2024/03/20 04:43:49;;;;;;;13.00;9.90;;;16.90;74.50;;;;;;4969410;28;20058;-76
2024/03/20 04:46:15;;;;;;;13.25;10.20;;;16.90;73.70;;;;;;4972239;28;20069;-76
2024/03/20 04:48:40;;;;;;;12.73;9.93;;;16.90;73.70;;;;;;4986279;28;20046;-76
2024/03/20 04:51:06;;;;;;;15.85;10.52;;;16.90;73.80;;;;;;4986895;28;20057;-76
2024/03/20 04:53:31;;;;;;;12.73;9.90;;;16.90;73.70;;;;;;4986789;28;20042;-76
2024/03/20 04:55:57;;;;;;;12.02;9.70;;;16.80;73.70;;;;;;4986234;28;20093;-76
2024/03/20 04:58:23;;;;;;;12.93;9.85;;;16.90;73.80;;;;;;4987369;28;20042;-76
2024/03/20 05:00:49;;;;;;;10.73;9.57;;;16.90;73.60;;;;;;4984742;28;20141;-76
2024/03/20 05:03:14;;;;;;;11.43;9.57;;;16.90;74.60;;;;;;4988458;28;20066;-77
2024/03/20 05:05:41;;;;;;;12.10;9.88;;;16.90;73.70;;;;;;4969326;28;20050;-77
2024/03/20 05:08:06;;;;;;;11.25;8.85;;;16.90;74.40;;;;;;4969843;28;20054;-77
2024/03/20 05:10:32;;;;;;;11.13;8.80;;;16.80;73.60;;;;;;4985922;28;20047;-77
2024/03/20 05:12:58;;;;;;;11.63;9.23;;;16.80;73.60;;;;;;4987000;28;20058;-77
2024/03/20 05:15:23;;;;;;;11.27;9.20;;;16.80;73.60;;;;;;4986312;28;20409;-76
2024/03/20 05:17:49;;;;;;;11.80;9.55;;;16.80;73.60;;;;;;4986693;28;20041;-77
2024/03/20 05:20:15;;;;;;;13.02;9.93;;;16.80;74.40;;;;;;4968802;28;20419;-76
2024/03/20 05:22:41;;;;;;;11.30;9.35;;;16.90;73.50;;;;;;4967822;28;20516;-76
2024/03/20 05:25:06;;;;;;;11.57;9.00;;;16.80;73.50;;;;;;5002583;28;20057;-76
2024/03/20 05:27:32;;;;;;;11.68;8.95;;;16.80;74.40;;;;;;4955392;28;20042;-77
2024/03/20 05:29:57;;;;;;;9.57;8.18;;;16.80;73.70;;;;;;4984850;28;20724;-76
2024/03/20 05:32:23;;;;;;;10.00;8.00;;;16.80;73.60;;;;;;4965491;28;20039;-76
2024/03/20 05:34:49;;;;;;;10.13;8.63;;;16.80;73.40;;;;;;4966354;28;20124;-76
2024/03/20 05:37:14;;;;;;;10.60;8.90;;;16.80;73.70;;;;;;4984689;28;20543;-76
2024/03/20 05:39:40;;;;;;;10.15;8.82;;;16.80;74.40;;;;;;4967249;28;20431;-78
2024/03/20 05:42:05;;;;;;;9.43;8.48;;;16.80;73.70;;;;;;4983348;28;20121;-76
2024/03/20 05:44:31;;;;;;;9.32;8.38;;;16.80;73.60;;;;;;4951980;28;20507;-76
2024/03/20 05:46:56;;;;;;;8.63;7.47;;;16.80;73.60;;;;;;4967122;28;20038;-76
2024/03/20 05:49:22;;;;;;;10.07;8.40;;;16.80;73.50;;;;;;4997791;28;20065;-76
2024/03/20 05:51:48;;;;;;;9.55;8.18;;;16.80;73.50;;;;;;4985267;28;20046;-76
2024/03/20 05:54:14;;;;;;;8.52;7.35;;;16.80;73.60;;;;;;4985052;28;20587;-76
2024/03/20 05:56:40;;;;;;;9.50;7.70;;;16.80;73.60;;;;;;4985766;28;20033;-77
2024/03/20 05:59:05;;;;;;;8.98;7.28;;;16.80;73.70;;;;;;4985809;28;20038;-76
2024/03/20 06:01:31;;;;;;;8.63;7.72;;;16.80;73.60;;;;;;4986890;28;20042;-76
2024/03/20 06:03:57;;;;;;;11.90;8.68;;;16.80;73.40;;;;;;4964601;28;20185;-76
2024/03/20 06:06:22;;;;;;;11.07;8.70;;;16.80;73.60;;;;;;4985085;28;20038;-76
2024/03/20 06:08:48;;;;;;;9.80;8.80;;;16.80;73.70;;;;;;4984802;28;20045;-76
2024/03/20 06:11:14;;;;;;;9.50;7.72;;;16.80;73.40;;;;;;4983157;28;20054;-76
2024/03/20 06:13:39;;;;;;;8.88;7.05;;;16.80;74.30;;;;;;4985347;28;20046;-76
2024/03/20 06:16:05;;;;;;;11.45;7.47;;;16.80;73.40;;;;;;4986139;28;20445;-76
2024/03/20 06:18:31;;;;;;;7.80;7.03;;;16.90;73.90;;;;;;5002585;28;20038;-76
2024/03/20 06:20:56;;;;;;;8.07;6.90;;;16.90;73.80;;;;;;4984203;28;20050;-76
2024/03/20 06:23:22;;;;;;;9.13;7.50;;;16.90;73.80;;;;;;4985440;28;20042;-76
2024/03/20 06:25:47;;;;;;;8.73;6.97;;;16.90;73.60;;;;;;4967161;28;20053;-77
2024/03/20 06:28:13;;;;;;;8.90;7.20;;;16.90;73.70;;;;;;4967417;28;20057;-76
2024/03/20 06:30:39;;;;;;;6.85;6.25;;;16.80;73.70;;;;;;5000789;28;24223;-76
2024/03/20 06:33:05;;;;;;;8.80;6.93;;;16.80;73.70;;;;;;4984852;28;20042;-76
2024/03/20 06:35:32;;;;;;;8.20;7.38;;;16.80;73.60;;;;;;4984654;28;20161;-77
2024/03/20 06:37:59;;;;;;;7.20;6.15;;;16.80;73.60;;;;;;4983932;28;20039;-77
2024/03/20 06:40:32;;;;;;;7.60;6.80;;;16.80;73.60;;;;;;4952132;28;20589;-76
2024/03/20 06:43:02;;;;;;;7.93;6.72;;;16.80;73.60;;;;;;4983750;28;20050;-76
2024/03/20 06:45:39;;;;;;;8.55;7.25;;;16.80;73.70;;;;;;4986083;28;20507;-77
2024/03/20 06:48:05;;;;;;;7.28;6.57;;;16.80;73.70;;;;;;4637642;28;9999726;-76
2024/03/20 06:50:31;;;;;;;7.88;6.80;;;16.80;73.60;;;;;;4983172;28;20437;-77
2024/03/20 06:52:57;;;;;;;7.82;7.13;;;16.80;73.70;;;;;;4982510;28;20042;-77
2024/03/20 06:55:25;;;;;;;7.03;6.43;;;16.80;73.40;;;;;;4980111;28;20046;-77
2024/03/20 06:57:50;;;;;;;8.00;6.35;;;16.90;73.70;;;;;;4980170;28;20520;-76
2024/03/20 07:00:19;;;;;;;7.63;6.80;;;16.90;73.60;;;;;;4982229;28;20093;-76
2024/03/20 07:02:45;;;;;;;7.75;6.97;;;16.90;73.80;;;;;;4976425;28;20076;-78
2024/03/20 07:05:13;;;;;;;6.47;5.88;;;16.90;73.70;;;;;;4964375;28;20118;-77
2024/03/20 07:07:39;;;;;;;7.05;6.38;;;16.90;73.90;;;;;;4963861;28;20034;-76
2024/03/20 07:10:05;;;;;;;7.07;6.38;;;16.90;74.00;;;;;;4981094;28;20057;-76
2024/03/20 07:12:30;;;;;;;7.00;6.13;;;16.90;74.00;;;;;;4980019;28;20046;-77
2024/03/20 07:14:56;;;;;;;7.35;6.50;;;16.90;74.20;;;;;;4980752;28;20542;-78
2024/03/20 07:17:22;;;;;;;8.30;6.28;;;16.90;74.30;;;;;;4962653;28;20034;-76
2024/03/20 07:19:52;;;;;;;7.78;5.97;;;16.90;75.00;;;;;;4984006;28;20518;-77
2024/03/20 07:22:17;;;;;;;5.68;5.18;;;16.90;74.40;;;;;;4984384;28;20062;-76
2024/03/20 07:24:43;;;;;;;5.60;5.00;;;16.90;75.20;;;;;;4987242;28;20066;-76
2024/03/20 07:27:09;;;;;;;6.10;5.50;;;16.90;74.70;;;;;;4965522;28;20799;-76
2024/03/20 07:29:34;;;;;;;6.05;5.55;;;16.90;74.60;;;;;;4967743;28;20038;-76
2024/03/20 07:32:00;;;;;;;6.18;5.63;;;16.90;74.60;;;;;;4982486;28;20038;-77
2024/03/20 07:34:25;;;;;;;5.85;5.35;;;16.90;74.50;;;;;;4986302;28;20508;-76
2024/03/20 07:36:51;;;;;;;5.85;5.20;;;16.90;74.30;;;;;;5005145;28;20057;-76
2024/03/20 07:39:19;;;;;;;6.43;5.38;;;16.90;75.00;;;;;;4982971;28;20268;-76
2024/03/20 07:41:45;;;;;;;5.50;5.05;;;16.90;74.10;;;;;;4972912;28;20082;-76
2024/03/20 07:44:11;;;;;;;5.85;5.35;;;16.90;74.20;;;;;;4983540;28;21233;-76
2024/03/20 07:46:36;;;;;;;5.47;5.05;;;16.90;74.10;;;;;;4970302;28;20035;-76
2024/03/20 07:49:03;;;;;;;6.10;5.60;;;16.90;74.20;;;;;;4970543;28;20030;-76
2024/03/20 07:51:28;;;;;;;5.47;5.03;;;16.90;74.20;;;;;;4995397;28;20054;-76
2024/03/20 07:53:55;;;;;;;5.82;5.32;;;16.90;74.10;;;;;;4999921;28;20043;-76
2024/03/20 07:56:20;;;;;;;5.07;4.68;;;16.90;74.00;;;;;;4986541;28;20044;-76
2024/03/20 07:58:47;;;;;;;5.32;4.82;;;16.90;74.10;;;;;;4986443;28;20038;-76
2024/03/20 08:01:13;;;;;;;5.40;5.00;;;16.90;74.10;;;;;;4987424;28;20080;-76
2024/03/20 08:03:43;;;;;;;4.53;4.22;;;16.90;74.10;;;;;;4956429;28;20069;-76
2024/03/20 08:06:09;;;;;;;5.00;4.55;;;16.90;74.20;;;;;;4971976;28;20038;-76
2024/03/20 08:08:35;;;;;;;5.78;5.25;;;16.90;74.20;;;;;;4988018;28;20184;-75
2024/03/20 08:11:01;;;;;;;7.70;5.22;;;16.90;74.10;;;;;;4988878;28;20452;-76
2024/03/20 08:13:27;;;;;;;5.28;4.65;;;16.90;74.10;;;;;;5004653;28;20046;-75
2024/03/20 08:15:52;;;;;;;4.82;4.43;;;16.90;74.10;;;;;;4970807;28;20523;-76
2024/03/20 08:18:18;;;;;;;5.15;4.65;;;16.90;74.10;;;;;;4969038;28;20042;-76
2024/03/20 08:20:44;;;;;;;4.57;4.20;;;16.90;74.10;;;;;;4988328;28;21115;-75
2024/03/20 08:23:10;;;;;;;4.60;4.25;;;16.90;74.80;;;;;;4983903;28;20058;-76
2024/03/20 08:25:36;;;;;;;3.88;3.65;;;16.90;74.10;;;;;;4968592;28;20099;-76
2024/03/20 08:28:03;;;;;;;5.10;4.63;;;16.90;74.10;;;;;;4986239;28;20050;-76
2024/03/20 08:30:28;;;;;;;5.18;4.03;;;16.90;74.00;;;;;;4988520;28;20415;-76
2024/03/20 08:32:54;;;;;;;5.70;4.13;;;16.90;73.90;;;;;;4988152;28;20042;-76
2024/03/20 08:35:19;;;;;;;4.60;4.25;;;17.00;73.90;;;;;;4987605;28;20189;-76
2024/03/20 08:37:45;;;;;;;3.97;3.67;;;17.00;73.70;;;;;;4971457;28;20050;-75
2024/03/20 08:40:14;;;;;;;3.60;3.30;;;17.00;73.70;;;;;;5002426;28;20059;-76
2024/03/20 08:42:40;;;;;;;4.22;3.92;;;17.00;73.60;;;;;;4987000;28;20478;-76
2024/03/20 08:45:08;;;;;;;4.28;3.90;;;17.00;73.60;;;;;;4992091;28;20042;-75
2024/03/20 08:47:36;;;;;;;4.05;3.63;;;17.10;73.60;;;;;;4985355;28;20172;-76
2024/03/20 08:50:02;;;;;;;4.90;4.07;;;17.10;73.70;;;;;;4951975;28;20385;-76
2024/03/20 08:52:28;;;;;;;4.00;3.70;;;17.10;74.50;;;;;;4987272;28;20042;-76
2024/03/20 08:54:54;;;;;;;4.57;3.70;;;17.10;73.60;;;;;;4986989;28;20057;-76
2024/03/20 08:57:20;;;;;;;4.13;3.83;;;17.10;73.60;;;;;;4951982;28;20512;-76
2024/03/20 08:59:46;;;;;;;3.65;3.35;;;17.20;73.80;;;;;;4971023;28;20077;-76
2024/03/20 09:02:12;;;;;;;4.00;3.70;;;17.20;73.80;;;;;;4987826;28;20182;-76
2024/03/20 09:04:39;;;;;;;3.60;3.30;;;17.20;73.70;;;;;;4966335;28;20128;-76
2024/03/20 09:07:05;;;;;;;3.65;3.35;;;17.20;74.50;;;;;;4970561;28;20077;-76
2024/03/20 09:09:32;;;;;;;3.28;3.08;;;17.20;73.70;;;;;;4987491;28;20444;-76
2024/03/20 09:11:58;;;;;;;3.50;3.22;;;17.30;74.40;;;;;;4985256;28;20073;-76
2024/03/20 09:14:23;;;;;;;3.30;3.10;;;17.30;73.50;;;;;;4985749;28;20515;-76
2024/03/20 09:16:50;;;;;;;5.07;3.00;;;17.30;73.50;;;;;;4987014;28;20046;-76
2024/03/20 09:19:21;;;;;;;3.47;3.17;;;17.40;73.50;;;;;;4987861;28;20058;-75
2024/03/20 09:21:46;;;;;;;2.70;2.50;;;17.40;73.30;;;;;;4969326;28;20050;-76
2024/03/20 09:24:17;;;;;;;3.63;3.13;;;17.40;73.10;;;;;;4971014;28;20427;-76
2024/03/20 09:26:43;;;;;;;3.40;3.20;;;17.50;73.10;;;;;;4986830;28;20082;-76
2024/03/20 09:29:10;;;;;;;3.20;3.00;;;17.60;72.90;;;;;;4985714;28;20131;-76
2024/03/20 09:31:35;;;;;;;2.95;2.75;;;17.60;72.70;;;;;;4988218;28;20093;-76
2024/03/20 09:34:01;;;;;;;3.53;3.22;;;17.70;72.50;;;;;;4985808;28;20167;-75
2024/03/20 09:36:26;;;;;;;2.92;2.60;;;17.60;73.00;;;;;;4985397;28;20049;-75
2024/03/20 09:38:52;;;;;;;2.78;2.60;;;17.70;72.30;;;;;;4980806;28;20037;-76
2024/03/20 09:41:18;;;;;;;3.03;2.83;;;17.70;72.10;;;;;;4985706;28;20539;-76
2024/03/20 09:43:44;;;;;;;3.03;2.83;;;17.80;71.90;;;;;;4969533;28;20068;-75
2024/03/20 09:46:15;;;;;;;3.08;2.80;;;17.80;71.70;;;;;;4969541;28;20150;-76
2024/03/20 09:48:41;;;;;;;3.72;3.25;;;17.80;71.70;;;;;;4985571;28;20034;-76
2024/03/20 09:51:06;;;;;;;3.40;3.10;;;17.80;71.60;;;;;;4986341;28;20417;-76
2024/03/20 09:53:34;;;;;;;3.58;3.08;;;17.90;71.50;;;;;;4985791;28;20038;-76
2024/03/20 09:56:09;;;;;;;5.93;3.28;;;17.90;71.40;;;;;;5000850;28;20093;-76
2024/03/20 09:58:38;;;;;;;3.10;2.90;;;17.90;71.40;;;;;;4968615;28;20121;-75
2024/03/20 10:01:15;;;;;;;4.18;3.38;;;18.00;71.30;;;;;;4969155;28;20068;-76
2024/03/20 10:03:43;;;;;;;2.75;2.55;;;18.00;71.20;;;;;;4969897;28;20418;-76
2024/03/20 10:06:08;;;;;;;3.10;2.90;;;18.00;71.30;;;;;;4969917;28;20488;-76
2024/03/20 10:08:37;;;;;;;2.90;2.70;;;18.00;71.20;;;;;;4985242;28;20046;-75
2024/03/20 10:11:03;;;;;;;2.88;2.67;;;18.00;72.00;;;;;;4984849;28;20496;-76
2024/03/20 10:13:28;;;;;;;2.90;2.70;;;18.00;71.30;;;;;;4987339;28;20121;-76
2024/03/20 10:16:03;;;;;;;3.63;3.33;;;18.00;71.20;;;;;;4986201;28;20042;-76
2024/03/20 10:18:29;;;;;;;3.00;2.72;;;18.00;71.10;;;;;;5001206;28;20503;-75
2024/03/20 10:20:54;;;;;;;3.05;2.85;;;18.10;71.00;;;;;;4986173;28;20042;-76
2024/03/20 10:23:20;;;;;;;3.08;2.78;;;18.10;71.00;;;;;;4985116;28;20057;-76
2024/03/20 10:25:47;;;;;;;3.70;3.22;;;18.10;71.00;;;;;;4984154;28;20567;-76
2024/03/20 10:28:13;;;;;;;2.55;2.35;;;18.10;71.10;;;;;;4979918;28;20053;-76
2024/03/20 10:30:39;;;;;;;2.47;2.38;;;18.10;71.10;;;;;;4968716;28;20576;-76
2024/03/20 10:33:05;;;;;;;2.63;2.42;;;18.10;71.10;;;;;;4952562;28;20057;-76
2024/03/20 10:35:30;;;;;;;2.95;2.75;;;18.10;71.00;;;;;;4951934;28;20575;-76
2024/03/20 10:37:56;;;;;;;2.53;2.38;;;18.10;71.00;;;;;;4968524;28;20042;-76
2024/03/20 10:40:21;;;;;;;2.90;2.70;;;18.10;71.00;;;;;;4967454;28;20049;-75
2024/03/20 10:42:49;;;;;;;2.45;2.33;;;18.10;70.90;;;;;;4986439;28;20065;-76
2024/03/20 10:45:14;;;;;;;2.53;2.33;;;18.20;70.80;;;;;;4984753;28;20045;-76
2024/03/20 10:47:40;;;;;;;2.60;2.40;;;18.10;70.90;;;;;;4967659;28;20054;-76
2024/03/20 10:50:16;;;;;;;2.85;2.15;;;18.20;71.50;;;;;;4984704;28;20056;-75
2024/03/20 10:52:42;;;;;;;2.42;2.22;;;18.20;70.80;;;;;;4982809;28;20073;-76
2024/03/20 10:55:10;;;;;;;2.30;2.20;;;18.20;70.70;;;;;;4968188;28;20050;-75
2024/03/20 10:57:36;;;;;;;2.20;2.10;;;18.20;70.70;;;;;;4983900;28;20047;-76
2024/03/20 11:00:04;;;;;;;2.72;2.53;;;18.20;71.50;;;;;;4985739;28;20049;-76
2024/03/20 11:02:30;;;;;;;2.28;2.15;;;18.20;70.60;;;;;;4968093;28;20054;-76
2024/03/20 11:04:55;;;;;;;2.75;2.30;;;18.20;70.60;;;;;;4969048;28;20039;-76
2024/03/20 11:07:29;;;;;;;2.40;2.20;;;18.20;70.70;;;;;;4952809;28;20547;-76
2024/03/20 11:09:58;;;;;;;2.20;2.10;;;18.20;70.60;;;;;;4988184;28;20061;-75
2024/03/20 11:12:25;;;;;;;2.25;2.15;;;18.30;70.60;;;;;;4985171;28;20054;-76
2024/03/20 11:14:50;;;;;;;2.35;2.25;;;18.30;70.60;;;;;;4987239;28;20066;-76
2024/03/20 11:17:16;;;;;;;2.38;2.28;;;18.30;70.60;;;;;;4971923;28;20256;-77
2024/03/20 11:19:43;;;;;;;2.28;2.17;;;18.30;70.50;;;;;;4972556;28;20081;-76
2024/03/20 11:22:24;;;;;;;2.22;1.98;;;18.30;70.50;;;;;;4989338;28;20043;-76
2024/03/20 11:24:53;;;;;;;3.33;2.10;;;18.30;70.40;;;;;;4987402;28;20066;-76
2024/03/20 11:27:22;;;;;;;2.10;2.00;;;18.30;70.40;;;;;;4984846;28;20497;-76
2024/03/20 11:29:48;;;;;;;2.60;2.40;;;18.40;70.50;;;;;;4964672;28;20054;-76
2024/03/20 11:32:14;;;;;;;2.13;2.03;;;18.40;70.50;;;;;;4968902;28;20397;-76
2024/03/20 11:34:43;;;;;;;2.42;2.10;;;18.40;70.50;;;;;;4953880;28;20097;-76
2024/03/20 11:37:18;;;;;;;2.67;1.48;;;18.40;70.60;;;;;;4952216;28;20050;-76
2024/03/20 11:39:44;;;;;;;1.85;1.75;;;18.40;70.50;;;;;;4992477;28;20061;-76
2024/03/20 11:42:18;;;;;;;2.05;1.95;;;18.40;70.50;;;;;;4969899;28;20050;-76
2024/03/20 11:44:44;;;;;;;2.05;1.95;;;18.40;70.50;;;;;;4968989;28;20500;-76
2024/03/20 11:47:14;;;;;;;2.05;1.90;;;18.50;70.60;;;;;;4984799;28;20049;-76
2024/03/20 11:49:49;;;;;;;2.72;1.90;;;18.50;71.50;;;;;;4988696;28;20061;-76
2024/03/20 11:52:16;;;;;;;2.08;1.98;;;18.50;69.80;;;;;;5003222;28;20049;-76
2024/03/20 11:54:42;;;;;;;2.25;2.08;;;18.50;70.30;;;;;;4988675;28;20038;-76
2024/03/20 11:57:09;;;;;;;2.20;1.90;;;18.50;70.40;;;;;;4988286;28;20173;-76
2024/03/20 11:59:35;;;;;;;2.30;1.48;;;18.50;70.40;;;;;;4987323;28;20073;-76
2024/03/20 12:02:02;;;;;;;2.08;1.98;;;18.50;70.40;;;;;;4986344;28;20058;-75
2024/03/20 12:04:28;;;;;;;2.10;2.00;;;18.50;70.50;;;;;;4989461;28;20100;-76
2024/03/20 12:06:54;;;;;;;1.70;1.60;;;18.40;70.50;;;;;;4987140;28;20049;-76
2024/03/20 12:09:19;;;;;;;2.65;1.80;;;18.40;70.50;;;;;;4994324;28;20043;-76
2024/03/20 12:11:45;;;;;;;1.70;1.60;;;18.40;70.50;;;;;;4989800;28;20046;-75
2024/03/20 12:14:11;;;;;;;1.67;1.58;;;18.40;70.40;;;;;;5002487;28;20129;-76
2024/03/20 12:16:37;;;;;;;2.03;1.88;;;18.40;70.50;;;;;;4985771;28;20069;-76
2024/03/20 12:19:03;;;;;;;1.90;1.80;;;18.40;70.60;;;;;;4987533;28;20070;-76
2024/03/20 12:21:28;;;;;;;1.85;1.73;;;18.40;71.30;;;;;;4988291;28;20049;-76
2024/03/20 12:23:54;;;;;;;1.88;1.40;;;18.40;71.40;;;;;;4969806;28;20039;-76
2024/03/20 12:26:24;;;;;;;1.67;1.58;;;18.40;70.60;;;;;;4987179;28;20041;-76
2024/03/20 12:28:50;;;;;;;2.13;1.42;;;18.40;70.60;;;;;;4989496;28;20046;-76
2024/03/20 12:31:22;;;;;;;1.88;1.77;;;18.40;70.50;;;;;;4970210;28;20042;-76
2024/03/20 12:33:51;;;;;;;1.50;1.40;;;18.50;70.50;;;;;;4988180;28;20189;-76